Time;durP1;ratioP1;P1;durP2;ratioP2;P2;SDS_P1;SDS_P2;PMS_P1;PMS_P2;Temp;Humidity;BMP_temperature;BMP_pressure;BME280_temperature;BME280_humidity;BME280_pressure;Samples;Min_cycle;Max_cycle;Signal;HPM_P1;HPM_P2
2023/12/03 00:01:04;;;;;;;0.90;0.65;;;;;;;;;;6246759;23;20012;-80
2023/12/03 00:03:35;;;;;;;3.10;0.82;;;;;;;;;;6246645;23;20011;-82
2023/12/03 00:06:10;;;;;;;3.50;0.75;;;;;;;;;;6221773;23;20008;-81
2023/12/03 00:08:40;;;;;;;1.00;0.77;;;;;;;;;;6221468;23;20022;-83
2023/12/03 00:11:09;;;;;;;0.50;0.40;;;;;;;;;;6220313;23;20091;-81
2023/12/03 00:13:35;;;;;;;4.05;0.68;;;;;;;;;;6220524;23;20004;-79
2023/12/03 00:16:01;;;;;;;1.23;0.80;;;;;;;;;;6221461;23;20004;-79
2023/12/03 00:18:30;;;;;;;2.67;1.77;;;;;;;;;;6248621;23;20424;-80
2023/12/03 00:21:00;;;;;;;4.63;1.08;;;;;;;;;;6246893;23;20071;-81
2023/12/03 00:23:46;;;;;;;3.22;1.02;;;;;;;;;;6247711;23;20004;-82
2023/12/03 00:26:12;;;;;;;2.60;1.40;;;;;;;;;;6220354;23;20011;-83
2023/12/03 00:28:43;;;;;;;0.80;0.75;;;;;;;;;;6220787;23;20008;-83
2023/12/03 00:31:13;;;;;;;4.13;0.90;;;;;;;;;;6219078;23;20012;-83
2023/12/03 00:33:39;;;;;;;2.83;0.30;;;;;;;;;;6222034;23;20437;-80
2023/12/03 00:36:14;;;;;;;0.30;0.30;;;;;;;;;;6249020;23;20042;-83
2023/12/03 00:38:48;;;;;;;1.13;0.28;;;;;;;;;;6220933;23;20011;-83
2023/12/03 00:41:50;;;;;;;2.55;0.85;;;;;;;;;;6219540;23;20067;-83
2023/12/03 00:44:18;;;;;;;1.90;1.05;;;;;;;;;;6220328;23;20012;-81
2023/12/03 00:46:47;;;;;;;0.20;0.20;;;;;;;;;;6220816;23;20375;-83
2023/12/03 00:49:21;;;;;;;0.20;0.20;;;;;;;;;;6246223;23;20745;-83
2023/12/03 00:51:54;;;;;;;0.32;0.22;;;;;;;;;;6221463;23;20012;-84
2023/12/03 00:54:20;;;;;;;1.27;0.65;;;;;;;;;;6221006;23;20024;-87
2023/12/03 00:56:56;;;;;;;1.48;0.43;;;;;;;;;;6220142;23;20058;-83
2023/12/03 00:59:24;;;;;;;1.83;1.67;;;;;;;;;;6221962;23;20078;-81
2023/12/03 01:01:50;;;;;;;1.55;0.50;;;;;;;;;;6220999;23;20004;-82
2023/12/03 01:04:15;;;;;;;1.02;0.28;;;;;;;;;;6221568;23;20035;-82
2023/12/03 01:06:41;;;;;;;0.40;0.40;;;;;;;;;;6246622;23;20008;-81
2023/12/03 01:09:09;;;;;;;2.35;1.42;;;;;;;;;;6219688;23;20024;-81
2023/12/03 01:11:43;;;;;;;2.35;1.00;;;;;;;;;;6220650;23;20436;-81
2023/12/03 01:14:09;;;;;;;1.20;0.50;;;;;;;;;;6220585;23;20008;-84
2023/12/03 01:16:34;;;;;;;1.17;0.63;;;;;;;;;;6220150;23;20061;-80
2023/12/03 01:19:08;;;;;;;0.40;0.40;;;;;;;;;;6221209;23;20004;-81
2023/12/03 01:21:33;;;;;;;10.40;0.75;;;;;;;;;;6221313;23;20981;-81
2023/12/03 01:24:07;;;;;;;4.55;1.17;;;;;;;;;;6220869;23;20083;-81
2023/12/03 01:26:45;;;;;;;7.88;0.40;;;;;;;;;;6221810;23;20066;-83
2023/12/03 01:29:12;;;;;;;0.75;0.55;;;;;;;;;;6221420;23;20007;-81
2023/12/03 01:31:37;;;;;;;1.60;0.73;;;;;;;;;;6219799;23;20008;-83
2023/12/03 01:34:03;;;;;;;5.13;1.23;;;;;;;;;;6221193;23;20386;-81
2023/12/03 01:36:31;;;;;;;0.35;0.35;;;;;;;;;;6220912;23;20391;-83
2023/12/03 01:39:00;;;;;;;5.68;0.70;;;;;;;;;;6220055;23;20622;-83
2023/12/03 01:41:36;;;;;;;0.50;0.50;;;;;;;;;;6219760;23;20007;-85
2023/12/03 01:44:05;;;;;;;1.95;0.82;;;;;;;;;;6221532;23;20592;-84
2023/12/03 01:46:30;;;;;;;1.75;0.65;;;;;;;;;;6218090;23;20008;-81
2023/12/03 01:48:56;;;;;;;0.65;0.25;;;;;;;;;;6218743;23;20106;-79
2023/12/03 01:51:22;;;;;;;0.28;0.28;;;;;;;;;;6246807;23;20008;-81
2023/12/03 01:53:49;;;;;;;0.20;0.20;;;;;;;;;;6219850;23;20016;-83
2023/12/03 01:56:17;;;;;;;0.40;0.40;;;;;;;;;;6245050;23;20008;-85
2023/12/03 01:58:45;;;;;;;4.80;0.70;;;;;;;;;;6220363;23;20003;-81
2023/12/03 02:01:13;;;;;;;0.30;0.30;;;;;;;;;;6218086;23;20696;-82
2023/12/03 02:03:39;;;;;;;0.52;0.50;;;;;;;;;;6246385;23;20039;-82
2023/12/03 02:06:06;;;;;;;0.35;0.35;;;;;;;;;;6245894;23;20054;-84
2023/12/03 02:08:32;;;;;;;0.28;0.22;;;;;;;;;;6218499;23;20020;-84
2023/12/03 02:11:01;;;;;;;1.00;0.60;;;;;;;;;;6245449;23;20000;-85
2023/12/03 02:13:29;;;;;;;0.75;0.73;;;;;;;;;;6217734;23;20034;-83
2023/12/03 02:15:55;;;;;;;0.30;0.30;;;;;;;;;;6219257;23;20004;-81
2023/12/03 02:18:21;;;;;;;13.40;1.20;;;;;;;;;;6219562;23;20004;-82
2023/12/03 02:20:49;;;;;;;1.48;0.93;;;;;;;;;;6218196;23;20018;-82
2023/12/03 02:23:15;;;;;;;6.53;0.40;;;;;;;;;;6220992;23;20099;-82
2023/12/03 02:25:47;;;;;;;0.55;0.32;;;;;;;;;;6220373;23;20007;-83
2023/12/03 02:28:15;;;;;;;2.33;1.00;;;;;;;;;;6218665;23;20027;-82
2023/12/03 02:30:41;;;;;;;0.28;0.22;;;;;;;;;;6218434;23;20008;-82
2023/12/03 02:33:07;;;;;;;2.85;0.73;;;;;;;;;;6246709;23;20007;-81
2023/12/03 02:35:32;;;;;;;0.32;0.30;;;;;;;;;;6245336;23;20424;-81
2023/12/03 02:38:00;;;;;;;0.45;0.40;;;;;;;;;;6217342;23;20004;-83
2023/12/03 02:40:26;;;;;;;0.65;0.50;;;;;;;;;;6244860;23;20004;-79
2023/12/03 02:42:57;;;;;;;1.52;0.65;;;;;;;;;;6219831;23;20011;-81
2023/12/03 02:45:23;;;;;;;10.07;0.98;;;;;;;;;;6245838;23;20007;-83
2023/12/03 02:47:48;;;;;;;3.88;0.60;;;;;;;;;;6220439;23;20491;-80
2023/12/03 02:50:14;;;;;;;2.00;0.50;;;;;;;;;;6218075;23;20008;-81
2023/12/03 02:52:40;;;;;;;1.70;0.80;;;;;;;;;;6246003;23;20008;-83
2023/12/03 02:55:06;;;;;;;2.80;0.40;;;;;;;;;;6245970;23;20008;-81
2023/12/03 02:57:34;;;;;;;4.00;1.30;;;;;;;;;;6219876;23;20091;-85
2023/12/03 03:00:00;;;;;;;3.83;1.65;;;;;;;;;;6245786;23;20083;-81
2023/12/03 03:02:25;;;;;;;0.57;0.45;;;;;;;;;;6218711;23;20012;-81
2023/12/03 03:04:51;;;;;;;4.65;0.68;;;;;;;;;;6220745;23;20004;-84
2023/12/03 03:07:17;;;;;;;0.65;0.65;;;;;;;;;;6218413;23;20012;-84
2023/12/03 03:09:42;;;;;;;2.28;0.95;;;;;;;;;;6217138;23;20066;-81
2023/12/03 03:12:10;;;;;;;1.27;0.65;;;;;;;;;;6219233;23;20004;-83
2023/12/03 03:14:36;;;;;;;0.40;0.40;;;;;;;;;;6245912;23;20012;-81
2023/12/03 03:17:02;;;;;;;0.40;0.40;;;;;;;;;;6219682;23;20004;-82
2023/12/03 03:19:30;;;;;;;0.73;0.47;;;;;;;;;;6246436;23;20000;-80
2023/12/03 03:21:55;;;;;;;0.98;0.40;;;;;;;;;;6245076;23;20714;-82
2023/12/03 03:24:21;;;;;;;2.50;0.77;;;;;;;;;;6244466;23;20110;-87
2023/12/03 03:26:47;;;;;;;2.55;0.90;;;;;;;;;;6218673;23;20012;-82
2023/12/03 03:29:15;;;;;;;3.75;0.52;;;;;;;;;;6219390;23;20008;-83
2023/12/03 03:31:44;;;;;;;4.95;0.70;;;;;;;;;;6244242;23;20004;-84
2023/12/03 03:34:09;;;;;;;3.88;1.10;;;;;;;;;;6243892;23;20008;-81
2023/12/03 03:36:35;;;;;;;2.65;0.35;;;;;;;;;;6217835;23;20018;-81
2023/12/03 03:39:00;;;;;;;0.88;0.70;;;;;;;;;;6243876;23;20057;-80
2023/12/03 03:41:26;;;;;;;9.13;0.95;;;;;;;;;;6243569;23;20004;-82
2023/12/03 03:43:55;;;;;;;2.90;0.90;;;;;;;;;;6243555;23;20031;-81
2023/12/03 03:46:20;;;;;;;1.67;0.90;;;;;;;;;;6217790;23;20022;-79
2023/12/03 03:48:49;;;;;;;1.17;0.63;;;;;;;;;;6245557;23;20039;-80
2023/12/03 03:51:14;;;;;;;2.28;0.40;;;;;;;;;;6217381;23;20055;-84
2023/12/03 03:53:40;;;;;;;8.10;0.80;;;;;;;;;;6244337;23;20069;-80
2023/12/03 03:56:09;;;;;;;0.17;0.15;;;;;;;;;;6244990;23;20014;-80
2023/12/03 03:58:36;;;;;;;0.20;0.20;;;;;;;;;;6215677;23;20016;-86
2023/12/03 04:01:07;;;;;;;5.20;0.73;;;;;;;;;;6217932;23;20008;-80
2023/12/03 04:03:37;;;;;;;1.10;0.95;;;;;;;;;;6244151;23;20453;-81
2023/12/03 04:06:03;;;;;;;1.77;0.32;;;;;;;;;;6218306;23;20094;-80
2023/12/03 04:08:29;;;;;;;1.05;0.80;;;;;;;;;;6220648;23;20462;-84
2023/12/03 04:11:01;;;;;;;1.02;0.90;;;;;;;;;;6245543;23;20071;-86
2023/12/03 04:13:27;;;;;;;1.00;0.73;;;;;;;;;;6220879;23;20008;-83
2023/12/03 04:15:55;;;;;;;2.83;1.10;;;;;;;;;;6218364;23;20008;-84
2023/12/03 04:18:27;;;;;;;2.42;0.80;;;;;;;;;;6245885;23;20000;-82
2023/12/03 04:20:52;;;;;;;0.20;0.20;;;;;;;;;;6219855;23;20061;-82
2023/12/03 04:23:18;;;;;;;5.00;1.15;;;;;;;;;;6219333;23;20012;-82
2023/12/03 04:25:44;;;;;;;0.50;0.50;;;;;;;;;;6245352;23;20051;-81
2023/12/03 04:28:14;;;;;;;0.47;0.38;;;;;;;;;;6218885;23;20086;-82
2023/12/03 04:30:55;;;;;;;1.02;0.55;;;;;;;;;;6217990;23;20031;-82
2023/12/03 04:33:30;;;;;;;4.80;0.77;;;;;;;;;;6218774;23;20004;-81
2023/12/03 04:35:55;;;;;;;1.88;0.82;;;;;;;;;;6246535;23;20424;-81
2023/12/03 04:38:30;;;;;;;3.38;0.60;;;;;;;;;;6248321;23;20060;-84
2023/12/03 04:41:17;;;;;;;0.30;0.30;;;;;;;;;;6247213;23;20090;-83
2023/12/03 04:43:42;;;;;;;2.53;0.75;;;;;;;;;;6220700;23;20103;-84
2023/12/03 04:46:28;;;;;;;1.50;0.77;;;;;;;;;;6247426;23;20007;-87
2023/12/03 04:49:17;;;;;;;2.35;0.90;;;;;;;;;;6217953;23;20035;-83
2023/12/03 04:52:04;;;;;;;1.88;0.60;;;;;;;;;;6218785;23;20008;-84
2023/12/03 04:54:55;;;;;;;1.35;0.95;;;;;;;;;;6245853;23;20082;-84
2023/12/03 04:57:35;;;;;;;5.30;0.73;;;;;;;;;;6219208;23;20011;-84
2023/12/03 05:00:10;;;;;;;0.47;0.47;;;;;;;;;;6221158;23;20070;-85
2023/12/03 05:02:46;;;;;;;2.60;0.60;;;;;;;;;;6247877;23;20011;-83
2023/12/03 05:08:25;;;;;;;;;;;;;;;;;;;;;
2023/12/03 05:10:51;;;;;;;0.30;0.30;;;;;;;;;;6247992;23;20476;-83
2023/12/03 05:13:22;;;;;;;3.03;0.60;;;;;;;;;;6219507;23;20268;-82
2023/12/03 05:15:51;;;;;;;1.30;0.50;;;;;;;;;;6221148;23;20039;-84
2023/12/03 05:18:25;;;;;;;1.55;1.30;;;;;;;;;;6219831;23;20359;-84
2023/12/03 05:21:10;;;;;;;1.30;0.45;;;;;;;;;;6218656;23;20000;-83
2023/12/03 05:23:43;;;;;;;0.43;0.38;;;;;;;;;;6245930;23;20011;-82
2023/12/03 05:26:10;;;;;;;2.15;1.65;;;;;;;;;;6218989;23;20095;-81
2023/12/03 05:28:53;;;;;;;3.97;0.63;;;;;;;;;;6219482;23;20031;-84
2023/12/03 05:31:24;;;;;;;7.47;1.17;;;;;;;;;;6220755;23;20008;-84
2023/12/03 05:33:53;;;;;;;1.95;1.05;;;;;;;;;;6218134;23;20062;-82
2023/12/03 05:36:22;;;;;;;0.32;0.32;;;;;;;;;;6219079;23;20012;-83
2023/12/03 05:38:50;;;;;;;0.45;0.45;;;;;;;;;;6219644;23;20015;-80
2023/12/03 05:41:16;;;;;;;0.20;0.20;;;;;;;;;;6219939;23;20340;-82
2023/12/03 05:43:43;;;;;;;0.25;0.25;;;;;;;;;;6220468;23;20134;-84
2023/12/03 05:46:33;;;;;;;2.10;0.80;;;;;;;;;;6219330;23;20375;-83
2023/12/03 05:49:28;;;;;;;0.98;0.50;;;;;;;;;;6218576;23;20008;-84
2023/12/03 05:51:54;;;;;;;0.52;0.50;;;;;;;;;;6217741;23;20042;-83
2023/12/03 05:54:19;;;;;;;1.23;0.82;;;;;;;;;;6246300;23;20000;-84
2023/12/03 05:56:45;;;;;;;1.45;0.60;;;;;;;;;;6244903;23;20015;-85
2023/12/03 05:59:11;;;;;;;0.50;0.40;;;;;;;;;;6216406;23;20014;-83
2023/12/03 06:01:37;;;;;;;1.85;0.70;;;;;;;;;;6244039;23;20012;-84
2023/12/03 06:04:06;;;;;;;3.50;0.95;;;;;;;;;;6245718;23;20081;-83
2023/12/03 06:06:32;;;;;;;2.97;1.45;;;;;;;;;;6218948;23;20478;-84
2023/12/03 06:08:58;;;;;;;0.90;0.47;;;;;;;;;;6217920;23;20012;-85
2023/12/03 06:11:23;;;;;;;3.05;0.98;;;;;;;;;;6245522;23;20168;-83
2023/12/03 06:13:49;;;;;;;3.33;1.25;;;;;;;;;;6243069;23;20057;-83
2023/12/03 06:16:14;;;;;;;1.83;0.95;;;;;;;;;;6217392;23;20031;-84
2023/12/03 06:18:40;;;;;;;1.50;0.85;;;;;;;;;;6217993;23;20004;-84
2023/12/03 06:21:07;;;;;;;2.38;0.77;;;;;;;;;;6218284;23;20008;-83
2023/12/03 06:23:32;;;;;;;1.10;0.68;;;;;;;;;;6247880;23;20078;-85
2023/12/03 06:25:58;;;;;;;1.73;0.90;;;;;;;;;;6246433;23;20000;-85
2023/12/03 06:28:23;;;;;;;0.98;0.85;;;;;;;;;;6244579;23;20451;-84
2023/12/03 06:30:49;;;;;;;16.60;0.75;;;;;;;;;;6218094;23;20007;-85
2023/12/03 06:33:18;;;;;;;0.77;0.75;;;;;;;;;;6218443;23;20054;-85
2023/12/03 06:35:43;;;;;;;6.57;0.73;;;;;;;;;;6245162;23;20007;-86
2023/12/03 06:38:09;;;;;;;0.30;0.30;;;;;;;;;;6216505;23;20008;-85
2023/12/03 06:40:34;;;;;;;0.60;0.55;;;;;;;;;;6216909;23;20008;-87
2023/12/03 06:43:03;;;;;;;0.55;0.40;;;;;;;;;;6242024;23;20007;-83
2023/12/03 06:45:28;;;;;;;0.98;0.63;;;;;;;;;;6215231;23;20008;-83
2023/12/03 06:47:54;;;;;;;0.52;0.52;;;;;;;;;;6215158;23;20012;-85
2023/12/03 06:50:19;;;;;;;0.82;0.60;;;;;;;;;;6241739;23;20089;-84
2023/12/03 06:52:45;;;;;;;1.40;0.50;;;;;;;;;;6241915;23;20530;-84
2023/12/03 06:55:12;;;;;;;1.20;1.08;;;;;;;;;;6242254;23;20008;-85
2023/12/03 06:57:37;;;;;;;1.02;0.70;;;;;;;;;;6242190;23;20000;-86
2023/12/03 07:00:04;;;;;;;1.23;0.55;;;;;;;;;;6242502;23;20749;-83
2023/12/03 07:02:29;;;;;;;4.22;1.20;;;;;;;;;;6215098;23;20486;-86
2023/12/03 07:04:55;;;;;;;0.40;0.40;;;;;;;;;;6214910;23;20012;-84
2023/12/03 07:07:20;;;;;;;1.90;1.73;;;;;;;;;;6241316;23;20013;-85
2023/12/03 07:09:46;;;;;;;1.00;0.73;;;;;;;;;;6241625;23;20015;-83
2023/12/03 07:12:11;;;;;;;1.15;0.65;;;;;;;;;;6241368;23;20425;-86
2023/12/03 07:14:40;;;;;;;3.70;1.10;;;;;;;;;;6214880;23;20004;-83
2023/12/03 07:17:06;;;;;;;3.60;1.35;;;;;;;;;;6213790;23;20004;-85
2023/12/03 07:19:32;;;;;;;0.40;0.22;;;;;;;;;;6213603;23;20004;-84
2023/12/03 07:21:57;;;;;;;0.57;0.50;;;;;;;;;;6241415;23;20057;-83
2023/12/03 07:24:22;;;;;;;1.45;0.73;;;;;;;;;;6212815;23;20053;-83
2023/12/03 07:26:48;;;;;;;6.07;2.88;;;;;;;;;;6239835;23;20004;-84
2023/12/03 07:29:13;;;;;;;2.88;2.58;;;;;;;;;;6240736;23;20489;-84
2023/12/03 07:31:39;;;;;;;2.30;1.25;;;;;;;;;;6213923;23;20087;-83
2023/12/03 07:34:04;;;;;;;2.13;1.45;;;;;;;;;;6241285;23;20016;-84
2023/12/03 07:36:30;;;;;;;1.45;1.00;;;;;;;;;;6214603;23;20039;-83
2023/12/03 07:38:55;;;;;;;2.00;1.15;;;;;;;;;;6213217;23;19996;-83
2023/12/03 07:41:21;;;;;;;1.50;1.13;;;;;;;;;;6242146;23;20004;-83
2023/12/03 07:43:46;;;;;;;1.40;1.15;;;;;;;;;;6242892;23;20011;-85
2023/12/03 07:46:20;;;;;;;1.45;1.20;;;;;;;;;;6243401;23;20069;-86
2023/12/03 07:48:48;;;;;;;0.68;0.68;;;;;;;;;;6243975;23;20004;-87
2023/12/03 07:51:14;;;;;;;7.60;1.80;;;;;;;;;;6217625;23;20437;-85
2023/12/03 07:53:40;;;;;;;1.75;1.23;;;;;;;;;;6244301;23;20004;-87
2023/12/03 07:56:09;;;;;;;2.03;0.88;;;;;;;;;;6218182;23;20380;-86
2023/12/03 07:58:35;;;;;;;0.80;0.60;;;;;;;;;;6244765;23;20024;-86
2023/12/03 08:01:01;;;;;;;1.52;0.75;;;;;;;;;;6217955;23;20052;-83
2023/12/03 08:03:26;;;;;;;2.20;1.40;;;;;;;;;;6244010;23;20019;-84
2023/12/03 08:05:52;;;;;;;5.22;0.75;;;;;;;;;;6216659;23;20012;-84
2023/12/03 08:08:17;;;;;;;0.77;0.77;;;;;;;;;;6216646;23;20012;-83
2023/12/03 08:10:43;;;;;;;1.30;1.20;;;;;;;;;;6218383;23;20015;-83
2023/12/03 08:13:08;;;;;;;0.55;0.55;;;;;;;;;;6244383;23;20031;-84
2023/12/03 08:15:34;;;;;;;0.93;0.85;;;;;;;;;;6243858;23;20428;-83
2023/12/03 08:17:59;;;;;;;14.05;1.80;;;;;;;;;;6216956;23;20030;-83
2023/12/03 08:20:25;;;;;;;2.03;0.70;;;;;;;;;;6244036;23;20004;-83
2023/12/03 08:22:50;;;;;;;1.60;1.08;;;;;;;;;;6244425;23;20034;-83
2023/12/03 08:25:16;;;;;;;5.18;2.08;;;;;;;;;;6217443;23;20613;-83
2023/12/03 08:27:42;;;;;;;7.30;2.83;;;;;;;;;;6217226;23;20039;-81
2023/12/03 08:30:08;;;;;;;11.20;3.58;;;;;;;;;;6217182;23;20031;-83
2023/12/03 08:32:33;;;;;;;5.18;2.33;;;;;;;;;;6244414;23;20029;-87
2023/12/03 08:35:02;;;;;;;2.60;1.55;;;;;;;;;;6216707;23;20053;-82
2023/12/03 08:37:33;;;;;;;1.38;1.20;;;;;;;;;;6216155;23;20111;-84
2023/12/03 08:39:59;;;;;;;2.78;1.40;;;;;;;;;;6217185;23;20082;-83
2023/12/03 08:42:24;;;;;;;3.80;2.00;;;;;;;;;;6217156;23;20456;-84
2023/12/03 08:44:57;;;;;;;2.72;1.70;;;;;;;;;;6217167;23;20012;-84
2023/12/03 08:47:22;;;;;;;3.10;1.85;;;;;;;;;;6218056;23;20008;-84
2023/12/03 08:49:51;;;;;;;4.82;2.65;;;;;;;;;;6243246;23;20004;-84
2023/12/03 08:52:16;;;;;;;1.83;1.73;;;;;;;;;;6215877;23;20008;-81
2023/12/03 08:54:42;;;;;;;3.13;1.98;;;;;;;;;;6243111;23;20015;-81
2023/12/03 08:57:09;;;;;;;1.65;1.45;;;;;;;;;;6243394;23;20003;-85
2023/12/03 08:59:39;;;;;;;2.30;1.63;;;;;;;;;;6242744;23;20000;-83
2023/12/03 09:02:07;;;;;;;4.55;2.40;;;;;;;;;;6243499;23;20054;-83
2023/12/03 09:04:33;;;;;;;5.30;1.98;;;;;;;;;;6215875;23;20008;-82
2023/12/03 09:07:00;;;;;;;5.47;3.75;;;;;;;;;;6216353;23;20091;-83
2023/12/03 09:09:25;;;;;;;2.75;2.13;;;;;;;;;;6242365;23;20028;-80
2023/12/03 09:11:51;;;;;;;5.57;1.80;;;;;;;;;;6215120;23;20146;-85
2023/12/03 09:14:16;;;;;;;4.85;2.55;;;;;;;;;;6215630;23;20004;-84
2023/12/03 09:16:42;;;;;;;5.70;3.00;;;;;;;;;;6242642;23;20004;-84
2023/12/03 09:19:07;;;;;;;3.55;1.95;;;;;;;;;;6216165;23;20035;-85
2023/12/03 09:21:33;;;;;;;3.58;3.13;;;;;;;;;;6216966;23;20008;-85
2023/12/03 09:23:58;;;;;;;1.90;1.70;;;;;;;;;;6243663;23;20003;-83
2023/12/03 09:26:24;;;;;;;10.20;2.80;;;;;;;;;;6217293;23;20004;-83
2023/12/03 09:28:49;;;;;;;0.90;0.77;;;;;;;;;;6216507;23;20014;-84
2023/12/03 09:31:15;;;;;;;3.03;1.90;;;;;;;;;;6217406;23;20424;-84
2023/12/03 09:33:40;;;;;;;1.42;1.33;;;;;;;;;;6241987;23;20008;-84
2023/12/03 09:36:07;;;;;;;3.05;2.63;;;;;;;;;;6216331;23;20015;-84
2023/12/03 09:38:32;;;;;;;0.82;0.82;;;;;;;;;;6243420;23;20028;-85
2023/12/03 09:41:00;;;;;;;1.27;1.17;;;;;;;;;;6217104;23;20004;-84
2023/12/03 09:43:27;;;;;;;3.10;1.83;;;;;;;;;;6244506;23;20015;-84
2023/12/03 09:45:55;;;;;;;2.05;1.75;;;;;;;;;;6217592;23;20008;-84
2023/12/03 09:48:22;;;;;;;2.75;1.90;;;;;;;;;;6243080;23;20011;-84
2023/12/03 09:50:49;;;;;;;7.03;2.78;;;;;;;;;;6243341;23;20010;-84
2023/12/03 09:53:18;;;;;;;1.58;1.48;;;;;;;;;;6243418;23;20542;-83
2023/12/03 09:55:43;;;;;;;1.50;1.40;;;;;;;;;;6244081;23;20030;-85
2023/12/03 09:58:15;;;;;;;5.70;1.25;;;;;;;;;;6217791;23;20004;-86
2023/12/03 10:00:41;;;;;;;1.55;1.35;;;;;;;;;;6244219;23;20694;-85
2023/12/03 10:03:08;;;;;;;3.30;2.60;;;;;;;;;;6216777;23;20015;-86
2023/12/03 10:05:34;;;;;;;2.63;2.20;;;;;;;;;;6216782;23;20016;-86
2023/12/03 10:08:00;;;;;;;3.13;1.08;;;;;;;;;;6242902;23;20008;-83
2023/12/03 10:10:30;;;;;;;5.97;2.85;;;;;;;;;;6216265;23;20005;-84
2023/12/03 10:12:56;;;;;;;1.13;0.70;;;;;;;;;;6244339;23;20003;-85
2023/12/03 10:15:22;;;;;;;1.80;1.58;;;;;;;;;;6244211;23;20000;-82
2023/12/03 10:17:49;;;;;;;7.78;0.88;;;;;;;;;;6244306;23;20050;-84
2023/12/03 10:20:21;;;;;;;0.77;0.75;;;;;;;;;;6244100;23;20003;-84
2023/12/03 10:22:49;;;;;;;1.67;1.55;;;;;;;;;;6244065;23;20054;-84
2023/12/03 10:25:35;;;;;;;2.83;1.00;;;;;;;;;;6216782;23;20012;-84
2023/12/03 10:28:05;;;;;;;1.65;1.08;;;;;;;;;;6217261;23;20487;-83
2023/12/03 10:30:38;;;;;;;1.48;1.38;;;;;;;;;;6216483;23;20004;-83
2023/12/03 10:33:04;;;;;;;4.80;2.20;;;;;;;;;;6216040;23;20062;-86
2023/12/03 10:35:35;;;;;;;5.70;0.90;;;;;;;;;;6244609;23;20336;-84
2023/12/03 10:38:01;;;;;;;0.93;0.68;;;;;;;;;;6218003;23;20004;-83
2023/12/03 10:40:26;;;;;;;2.03;1.38;;;;;;;;;;6218380;23;20091;-84
2023/12/03 10:42:52;;;;;;;1.65;1.33;;;;;;;;;;6217350;23;20032;-85
2023/12/03 10:45:17;;;;;;;0.75;0.68;;;;;;;;;;6217293;23;20007;-82
2023/12/03 10:47:44;;;;;;;1.75;1.40;;;;;;;;;;6216808;23;20455;-83
2023/12/03 10:50:12;;;;;;;2.25;1.88;;;;;;;;;;6243471;23;20004;-84
2023/12/03 10:52:40;;;;;;;4.25;0.95;;;;;;;;;;6243444;23;20074;-84
2023/12/03 11:01:41;;;;;;;2.15;1.58;;;;;;;;;;6123476;23;20088;-84
2023/12/03 11:05:07;;;;;;;;;;;;;;;;;;;;;
2023/12/03 11:07:36;;;;;;;2.58;1.58;;;;;;;;;;6244794;23;20102;-85
2023/12/03 11:10:49;;;;;;;3.27;2.40;;;;;;;;;;6221449;23;20420;-84
2023/12/03 11:13:37;;;;;;;2.17;1.55;;;;;;;;;;6241491;23;20012;-86
2023/12/03 11:16:36;;;;;;;0.75;0.75;;;;;;;;;;6248003;23;20087;-86
2023/12/03 11:19:54;;;;;;;1.60;1.50;;;;;;;;;;6213639;23;20070;-84
2023/12/03 11:22:56;;;;;;;3.90;1.90;;;;;;;;;;6119986;23;20031;-86
2023/12/03 11:25:52;;;;;;;3.67;1.60;;;;;;;;;;6187294;23;20550;-84
2023/12/03 11:28:34;;;;;;;1.08;0.63;;;;;;;;;;6210149;23;20689;-84
2023/12/03 11:31:02;;;;;;;2.33;2.08;;;;;;;;;;6183511;23;20016;-84
2023/12/03 11:33:29;;;;;;;2.33;2.13;;;;;;;;;;6186337;23;20078;-85
2023/12/03 11:37:04;;;;;;;1.27;1.13;;;;;;;;;;6212306;23;20336;-85
2023/12/03 11:40:12;;;;;;;2.35;1.63;;;;;;;;;;6068188;23;20014;-85
2023/12/03 11:43:22;;;;;;;2.15;1.30;;;;;;;;;;6072464;23;20013;-86
2023/12/03 11:46:02;;;;;;;5.30;3.38;;;;;;;;;;6180025;23;20087;-84
2023/12/03 11:48:55;;;;;;;1.25;1.15;;;;;;;;;;6186445;23;20001;-83
2023/12/03 11:51:53;;;;;;;3.67;2.50;;;;;;;;;;6222899;23;20035;-86
2023/12/03 11:54:31;;;;;;;1.83;1.48;;;;;;;;;;6243950;23;20093;-84
2023/12/03 11:56:59;;;;;;;3.50;1.92;;;;;;;;;;6244215;23;20026;-84
2023/12/03 12:00:27;;;;;;;;;;;;;;;;;;;;;
2023/12/03 12:03:31;;;;;;;7.30;3.85;;;;;;;;;;6121858;23;20518;-84
2023/12/03 12:06:58;;;;;;;;;;;;;;;;;;;;;
2023/12/03 12:10:31;;;;;;;;;;;;;;;;;;;;;
2023/12/03 12:20:47;;;;;;;1.70;1.58;;;;;;;;;;6036753;23;20074;-84
2023/12/03 12:28:02;;;;;;;3.10;2.00;;;;;;;;;;6102531;23;20021;-84
2023/12/03 12:41:26;;;;;;;;;;;;;;;;;;;;;
2023/12/03 12:45:01;;;;;;;2.07;1.13;;;;;;;;;;5978628;23;20111;-83
2023/12/03 12:48:01;;;;;;;3.03;2.80;;;;;;;;;;5980647;23;20006;-86
2023/12/03 12:53:56;;;;;;;0.80;0.80;;;;;;;;;;6122967;23;20040;-84
2023/12/03 12:56:22;;;;;;;2.05;1.85;;;;;;;;;;6096717;23;20093;-84
2023/12/03 12:58:51;;;;;;;1.55;1.45;;;;;;;;;;6122582;23;20020;-81
2023/12/03 13:01:16;;;;;;;1.95;1.30;;;;;;;;;;6191976;23;20008;-84
2023/12/03 13:03:42;;;;;;;0.63;0.57;;;;;;;;;;6243958;23;20341;-82
2023/12/03 13:06:08;;;;;;;1.60;1.13;;;;;;;;;;6217132;23;20081;-81
2023/12/03 13:08:35;;;;;;;1.67;1.58;;;;;;;;;;6243365;23;20016;-84
2023/12/03 13:11:00;;;;;;;1.33;1.23;;;;;;;;;;6243736;23;20004;-84
2023/12/03 13:13:26;;;;;;;2.80;1.50;;;;;;;;;;6216117;23;20470;-83
2023/12/03 13:15:51;;;;;;;3.95;1.90;;;;;;;;;;6244344;23;20011;-84
2023/12/03 13:18:17;;;;;;;0.95;0.95;;;;;;;;;;6244706;23;20004;-86
2023/12/03 13:20:42;;;;;;;0.57;0.57;;;;;;;;;;6243118;23;20780;-85
2023/12/03 13:23:08;;;;;;;2.75;0.95;;;;;;;;;;6243625;23;20011;-84
2023/12/03 13:25:33;;;;;;;1.70;1.45;;;;;;;;;;6217427;23;20053;-81
2023/12/03 13:27:59;;;;;;;6.00;2.40;;;;;;;;;;6215829;23;20014;-83
2023/12/03 13:30:27;;;;;;;1.88;1.77;;;;;;;;;;6217139;23;20436;-84
2023/12/03 13:32:52;;;;;;;1.25;1.17;;;;;;;;;;6216779;23;20083;-83
2023/12/03 13:35:18;;;;;;;1.48;1.38;;;;;;;;;;6244560;23;20365;-84
2023/12/03 13:37:44;;;;;;;5.15;4.72;;;;;;;;;;6243285;23;20421;-85
2023/12/03 13:40:09;;;;;;;0.70;0.70;;;;;;;;;;6244422;23;20069;-83
2023/12/03 13:42:36;;;;;;;2.08;1.58;;;;;;;;;;6244153;23;20057;-84
2023/12/03 13:45:03;;;;;;;3.60;1.63;;;;;;;;;;6243700;23;20023;-84
2023/12/03 13:47:32;;;;;;;1.55;1.13;;;;;;;;;;6216532;23;20011;-82
2023/12/03 13:49:59;;;;;;;3.80;0.68;;;;;;;;;;6243739;23;20012;-82
2023/12/03 13:52:24;;;;;;;2.47;1.58;;;;;;;;;;6216985;23;20008;-83
2023/12/03 13:54:50;;;;;;;7.05;3.38;;;;;;;;;;6243563;23;20004;-81
2023/12/03 13:57:15;;;;;;;0.63;0.57;;;;;;;;;;6243484;23;20056;-82
2023/12/03 13:59:42;;;;;;;2.63;2.42;;;;;;;;;;6243813;23;20004;-83
2023/12/03 14:02:09;;;;;;;0.38;0.32;;;;;;;;;;6243138;23;20008;-82
2023/12/03 14:04:38;;;;;;;1.33;1.23;;;;;;;;;;6243826;23;20000;-81
2023/12/03 14:07:04;;;;;;;2.63;1.83;;;;;;;;;;6217607;23;20026;-82
2023/12/03 14:09:30;;;;;;;0.57;0.57;;;;;;;;;;6243768;23;20510;-81
2023/12/03 14:11:58;;;;;;;3.53;2.88;;;;;;;;;;6215778;23;20012;-83
2023/12/03 14:14:24;;;;;;;1.55;1.38;;;;;;;;;;6244019;23;20015;-84
2023/12/03 14:16:57;;;;;;;0.90;0.88;;;;;;;;;;6217113;23;19999;-83
2023/12/03 14:19:26;;;;;;;5.57;2.25;;;;;;;;;;6217037;23;20004;-82
2023/12/03 14:21:52;;;;;;;1.95;1.48;;;;;;;;;;6216822;23;20012;-84
2023/12/03 14:24:17;;;;;;;2.97;2.63;;;;;;;;;;6243352;23;20845;-81
2023/12/03 14:26:43;;;;;;;3.90;1.65;;;;;;;;;;6216263;23;20008;-82
2023/12/03 14:29:09;;;;;;;0.50;0.50;;;;;;;;;;6242259;23;20091;-82
2023/12/03 14:31:35;;;;;;;1.05;1.05;;;;;;;;;;6216976;23;20111;-81
2023/12/03 14:34:01;;;;;;;3.83;1.33;;;;;;;;;;6216777;23;20024;-81
2023/12/03 14:36:26;;;;;;;1.05;0.95;;;;;;;;;;6217117;23;20083;-82
2023/12/03 14:38:52;;;;;;;1.50;1.38;;;;;;;;;;6216913;23;20027;-83
2023/12/03 14:41:18;;;;;;;3.42;2.42;;;;;;;;;;6216716;23;20428;-81
2023/12/03 14:43:43;;;;;;;1.02;0.70;;;;;;;;;;6216543;23;20004;-81
2023/12/03 14:46:16;;;;;;;2.00;1.08;;;;;;;;;;6243412;23;20015;-81
2023/12/03 14:48:41;;;;;;;1.55;1.17;;;;;;;;;;6215172;23;20082;-81
2023/12/03 14:51:18;;;;;;;1.67;1.58;;;;;;;;;;6216044;23;20340;-81
2023/12/03 14:53:43;;;;;;;1.45;1.33;;;;;;;;;;6216459;23;20010;-80
2023/12/03 14:56:22;;;;;;;1.70;1.60;;;;;;;;;;6242779;23;20004;-80
2023/12/03 14:58:49;;;;;;;6.22;1.23;;;;;;;;;;6243211;23;19996;-82
2023/12/03 15:01:15;;;;;;;1.67;1.58;;;;;;;;;;6215737;23;20008;-82
2023/12/03 15:03:40;;;;;;;1.30;0.75;;;;;;;;;;6216299;23;20004;-82
2023/12/03 15:06:06;;;;;;;3.05;2.78;;;;;;;;;;6216247;23;20336;-82
2023/12/03 15:08:31;;;;;;;3.00;2.25;;;;;;;;;;6242885;23;20016;-81
2023/12/03 15:10:58;;;;;;;3.35;1.75;;;;;;;;;;6215643;23;20035;-84
2023/12/03 15:13:23;;;;;;;0.63;0.43;;;;;;;;;;6216392;23;20012;-84
2023/12/03 15:15:51;;;;;;;1.58;0.65;;;;;;;;;;6216502;23;20099;-80
2023/12/03 15:18:18;;;;;;;5.35;1.20;;;;;;;;;;6215899;23;20336;-81
2023/12/03 15:20:43;;;;;;;1.58;1.05;;;;;;;;;;6242860;23;20083;-82
2023/12/03 15:23:11;;;;;;;1.98;1.40;;;;;;;;;;6216185;23;20498;-81
2023/12/03 15:25:36;;;;;;;3.08;2.20;;;;;;;;;;6215550;23;20099;-81
2023/12/03 15:28:02;;;;;;;0.30;0.30;;;;;;;;;;6242322;23;20069;-81
2023/12/03 15:30:27;;;;;;;6.78;1.30;;;;;;;;;;6215774;23;20090;-82
2023/12/03 15:32:53;;;;;;;0.70;0.70;;;;;;;;;;6242547;23;20007;-81
2023/12/03 15:35:18;;;;;;;0.47;0.47;;;;;;;;;;6215196;23;20007;-82
2023/12/03 15:37:44;;;;;;;0.60;0.60;;;;;;;;;;6243286;23;20004;-81
2023/12/03 15:40:11;;;;;;;2.20;1.23;;;;;;;;;;6215859;23;20008;-81
2023/12/03 15:42:36;;;;;;;1.38;1.27;;;;;;;;;;6243013;23;20008;-83